Time,TemperatureF,DewpointF,PressureIn,WindDirection,WindDirectionDegrees,WindSpeedMPH,WindSpeedGustMPH,Humidity,HourlyPrecipIn,Conditions,Clouds,dailyrainin,SoftwareType,DateUTC
2013-09-15 00:06:00,56.3,51.0,30.21,ENE,78,0.0,-999.0,81,-99.99,,,0.00,weatherlink.com 1.10,2013-09-15 04:06:00,
2013-09-15 00:21:00,56.0,50.0,30.21,ENE,78,0.0,-999.0,81,-99.99,,,0.00,weatherlink.com 1.10,2013-09-15 04:21:00,
2013-09-15 00:37:00,55.8,50.0,30.22,ENE,78,0.0,-999.0,81,-99.99,,,0.00,weatherlink.com 1.10,2013-09-15 04:37:00,
2013-09-15 00:52:00,55.4,50.0,30.22,ENE,78,0.0,-999.0,81,-99.99,,,0.00,weatherlink.com 1.10,2013-09-15 04:52:00,
2013-09-15 01:07:00,55.2,50.0,30.22,ENE,78,0.0,-999.0,82,-99.99,,,0.00,weatherlink.com 1.10,2013-09-15 05:07:00,
2013-09-15 01:22:00,55.0,50.0,30.23,ENE,78,0.0,-999.0,82,-99.99,,,0.00,weatherlink.com 1.10,2013-09-15 05:22:00,
2013-09-15 01:37:00,54.8,49.0,30.23,ENE,78,0.0,-999.0,82,-99.99,,,0.00,weatherlink.com 1.10,2013-09-15 05:37:00,
2013-09-15 02:07:00,54.4,49.0,30.23,ENE,78,0.0,-999.0,82,-99.99,,,0.00,weatherlink.com 1.10,2013-09-15 06:07:00,
2013-09-15 02:22:00,54.2,49.0,30.23,ENE,78,0.0,-999.0,82,-99.99,,,0.00,weatherlink.com 1.10,2013-09-15 06:22:00,
2013-09-15 02:37:00,54.0,49.0,30.24,ENE,78,0.0,-999.0,82,-99.99,,,0.00,weatherlink.com 1.10,2013-09-15 06:37:00,
2013-09-15 02:52:00,53.9,49.0,30.24,ENE,78,0.0,-999.0,82,-99.99,,,0.00,weatherlink.com 1.10,2013-09-15 06:52:00,
2013-09-15 03:07:00,53.8,49.0,30.24,ENE,78,0.0,-999.0,83,-99.99,,,0.00,weatherlink.com 1.10,2013-09-15 07:07:00,
2013-09-15 03:22:00,53.6,49.0,30.24,ENE,78,0.0,-999.0,83,-99.99,,,0.00,weatherlink.com 1.10,2013-09-15 07:22:00,
2013-09-15 03:38:00,53.4,48.0,30.24,ENE,78,0.0,-999.0,83,-99.99,,,0.00,weatherlink.com 1.10,2013-09-15 07:38:00,
2013-09-15 03:53:00,53.3,48.0,30.24,ENE,78,0.0,-999.0,83,-99.99,,,0.00,weatherlink.com 1.10,2013-09-15 07:53:00,
2013-09-15 04:08:00,53.1,48.0,30.25,ENE,77,0.0,-999.0,83,-99.99,,,0.00,weatherlink.com 1.10,2013-09-15 08:08:00,
2013-09-15 04:23:00,52.9,48.0,30.25,ENE,77,0.0,-999.0,83,-99.99,,,0.00,weatherlink.com 1.10,2013-09-15 08:23:00,
2013-09-15 04:38:00,52.7,48.0,30.25,ENE,77,0.0,-999.0,83,-99.99,,,0.00,weatherlink.com 1.10,2013-09-15 08:38:00,
2013-09-15 04:53:00,52.6,48.0,30.26,ENE,77,0.0,-999.0,83,-99.99,,,0.00,weatherlink.com 1.10,2013-09-15 08:53:00,
2013-09-15 05:08:00,52.5,48.0,30.26,ENE,78,0.0,-999.0,83,-99.99,,,0.00,weatherlink.com 1.10,2013-09-15 09:08:00,
2013-09-15 05:23:00,52.4,47.0,30.26,ENE,78,0.0,-999.0,83,-99.99,,,0.00,weatherlink.com 1.10,2013-09-15 09:23:00,
2013-09-15 05:38:00,52.4,47.0,30.26,ENE,78,0.0,-999.0,83,-99.99,,,0.00,weatherlink.com 1.10,2013-09-15 09:38:00,
2013-09-15 05:53:00,52.3,47.0,30.26,ENE,78,0.0,-999.0,83,-99.99,,,0.00,weatherlink.com 1.10,2013-09-15 09:53:00,
2013-09-15 06:08:00,52.2,47.0,30.27,ENE,78,0.0,-999.0,83,-99.99,,,0.00,weatherlink.com 1.10,2013-09-15 10:08:00,
2013-09-15 06:24:00,52.2,48.0,30.27,ENE,78,0.0,-999.0,84,-99.99,,,0.00,weatherlink.com 1.10,2013-09-15 10:24:00,
2013-09-15 06:39:00,52.1,47.0,30.27,ENE,78,0.0,-999.0,84,-99.99,,,0.00,weatherlink.com 1.10,2013-09-15 10:39:00,
2013-09-15 06:54:00,52.0,47.0,30.29,ENE,78,0.0,-999.0,84,-99.99,,,0.00,weatherlink.com 1.10,2013-09-15 10:54:00,
2013-09-15 07:09:00,51.8,47.0,30.29,ENE,78,0.0,-999.0,83,-99.99,,,0.00,weatherlink.com 1.10,2013-09-15 11:09:00,
2013-09-15 07:24:00,51.8,47.0,30.29,ENE,78,0.0,-999.0,84,-99.99,,,0.00,weatherlink.com 1.10,2013-09-15 11:24:00,
2013-09-15 07:39:00,52.2,48.0,30.29,ENE,78,0.0,-999.0,84,-99.99,,,0.00,weatherlink.com 1.10,2013-09-15 11:39:00,
2013-09-15 07:54:00,52.7,48.0,30.29,ENE,78,0.0,-999.0,84,-99.99,,,0.00,weatherlink.com 1.10,2013-09-15 11:54:00,
2013-09-15 08:09:00,53.5,49.0,30.29,ENE,77,0.0,-999.0,85,-99.99,,,0.00,weatherlink.com 1.10,2013-09-15 12:09:00,
2013-09-15 08:24:00,54.1,50.0,30.29,ENE,77,0.0,-999.0,85,-99.99,,,0.00,weatherlink.com 1.10,2013-09-15 12:24:00,
2013-09-15 08:39:00,54.8,50.0,30.30,ENE,77,0.0,-999.0,85,-99.99,,,0.00,weatherlink.com 1.10,2013-09-15 12:39:00,
2013-09-15 08:54:00,55.6,51.0,30.30,ENE,77,0.0,-999.0,85,-99.99,,,0.00,weatherlink.com 1.10,2013-09-15 12:54:00,
2013-09-15 09:10:00,56.3,52.0,30.30,ENE,77,0.0,-999.0,86,-99.99,,,0.00,weatherlink.com 1.10,2013-09-15 13:10:00,
2013-09-15 09:25:00,57.4,53.0,30.30,ENE,78,0.0,-999.0,85,-99.99,,,0.00,weatherlink.com 1.10,2013-09-15 13:25:00,
2013-09-15 09:40:00,58.1,53.0,30.31,ENE,68,0.0,-999.0,84,-99.99,,,0.00,weatherlink.com 1.10,2013-09-15 13:40:00,
2013-09-15 09:55:00,59.9,54.0,30.31,East,88,0.0,-999.0,82,-99.99,,,0.00,weatherlink.com 1.10,2013-09-15 13:55:00,
2013-09-15 10:10:00,62.6,55.0,30.32,ENE,66,0.0,-999.0,76,-99.99,,,0.00,weatherlink.com 1.10,2013-09-15 14:10:00,
2013-09-15 10:25:00,64.4,55.0,30.32,NE,53,1.0,-999.0,71,-99.99,,,0.00,weatherlink.com 1.10,2013-09-15 14:25:00,
2013-09-15 10:40:00,65.9,55.0,30.32,East,79,1.0,-999.0,67,-99.99,,,0.00,weatherlink.com 1.10,2013-09-15 14:40:00,
2013-09-15 10:55:00,67.0,55.0,30.32,ESE,120,1.0,-999.0,65,-99.99,,,0.00,weatherlink.com 1.10,2013-09-15 14:55:00,
2013-09-15 11:11:00,68.4,55.0,30.31,East,93,0.0,-999.0,63,-99.99,,,0.00,weatherlink.com 1.10,2013-09-15 15:11:00,
2013-09-15 11:26:00,69.6,56.0,30.31,NE,53,1.0,-999.0,62,-99.99,,,0.00,weatherlink.com 1.10,2013-09-15 15:26:00,
2013-09-15 11:41:00,70.3,55.0,30.31,ENE,61,2.0,-999.0,59,-99.99,,,0.00,weatherlink.com 1.10,2013-09-15 15:41:00,
2013-09-15 11:56:00,69.4,56.0,30.31,East,98,1.0,-999.0,62,-99.99,,,0.00,weatherlink.com 1.10,2013-09-15 15:56:00,
2013-09-15 12:11:00,69.3,55.0,30.31,NE,55,0.0,-999.0,61,-99.99,,,0.00,weatherlink.com 1.10,2013-09-15 16:11:00,
2013-09-15 12:26:00,69.2,55.0,30.30,NE,55,1.0,-999.0,61,-99.99,,,0.00,weatherlink.com 1.10,2013-09-15 16:26:00,
2013-09-15 12:41:00,70.3,57.0,30.29,ENE,63,4.0,-999.0,62,-99.99,,,0.00,weatherlink.com 1.10,2013-09-15 16:41:00,
2013-09-15 12:56:00,70.9,56.0,30.29,West,259,0.0,-999.0,59,-99.99,,,0.00,weatherlink.com 1.10,2013-09-15 16:56:00,
2013-09-15 13:11:00,70.9,57.0,30.29,East,80,1.0,-999.0,62,-99.99,,,0.00,weatherlink.com 1.10,2013-09-15 17:11:00,
2013-09-15 13:26:00,72.5,57.0,30.29,ENE,61,0.0,-999.0,58,-99.99,,,0.00,weatherlink.com 1.10,2013-09-15 17:26:00,
2013-09-15 13:41:00,71.9,57.0,30.28,NE,51,1.0,-999.0,60,-99.99,,,0.00,weatherlink.com 1.10,2013-09-15 17:41:00,
2013-09-15 13:57:00,72.1,58.0,30.28,East,80,0.0,-999.0,62,-99.99,,,0.00,weatherlink.com 1.10,2013-09-15 17:57:00,
2013-09-15 14:12:00,72.7,58.0,30.27,ENE,71,1.0,-999.0,61,-99.99,,,0.00,weatherlink.com 1.10,2013-09-15 18:12:00,
2013-09-15 14:27:00,72.0,58.0,30.26,ESE,120,0.0,-999.0,61,-99.99,,,0.00,weatherlink.com 1.10,2013-09-15 18:27:00,
2013-09-15 14:42:00,72.2,60.0,30.26,NW,322,0.0,-999.0,66,-99.99,,,0.00,weatherlink.com 1.10,2013-09-15 18:42:00,
2013-09-15 14:57:00,73.0,58.0,30.25,NE,49,0.0,-999.0,60,-99.99,,,0.00,weatherlink.com 1.10,2013-09-15 18:57:00,
2013-09-15 15:12:00,72.2,60.0,30.25,ENE,63,0.0,-999.0,66,-99.99,,,0.00,weatherlink.com 1.10,2013-09-15 19:12:00,
2013-09-15 15:27:00,72.3,61.0,30.25,East,93,0.0,-999.0,68,-99.99,,,0.00,weatherlink.com 1.10,2013-09-15 19:27:00,
2013-09-15 15:42:00,73.0,60.0,30.23,ENE,67,0.0,-999.0,63,-99.99,,,0.00,weatherlink.com 1.10,2013-09-15 19:42:00,
2013-09-15 15:57:00,71.6,60.0,30.23,ENE,57,0.0,-999.0,67,-99.99,,,0.00,weatherlink.com 1.10,2013-09-15 19:57:00,
2013-09-15 16:12:00,72.8,60.0,30.22,NE,50,0.0,-999.0,64,-99.99,,,0.00,weatherlink.com 1.10,2013-09-15 20:12:00,
2013-09-15 16:27:00,72.4,60.0,30.21,ENE,70,0.0,-999.0,65,-99.99,,,0.00,weatherlink.com 1.10,2013-09-15 20:27:00,
2013-09-15 16:42:00,73.1,61.0,30.21,ENE,58,0.0,-999.0,65,-99.99,,,0.00,weatherlink.com 1.10,2013-09-15 20:42:00,
2013-09-15 16:57:00,72.6,61.0,30.21,NE,47,0.0,-999.0,68,-99.99,,,0.00,weatherlink.com 1.10,2013-09-15 20:57:00,
2013-09-15 17:13:00,72.7,60.0,30.21,NE,49,0.0,-999.0,65,-99.99,,,0.00,weatherlink.com 1.10,2013-09-15 21:13:00,
2013-09-15 17:28:00,72.4,61.0,30.20,NE,49,0.0,-999.0,68,-99.99,,,0.00,weatherlink.com 1.10,2013-09-15 21:28:00,
2013-09-15 17:43:00,71.6,60.0,30.20,NE,49,0.0,-999.0,68,-99.99,,,0.00,weatherlink.com 1.10,2013-09-15 21:43:00,
2013-09-15 17:58:00,71.4,61.0,30.20,NE,49,0.0,-999.0,70,-99.99,,,0.00,weatherlink.com 1.10,2013-09-15 21:58:00,
2013-09-15 18:13:00,70.8,61.0,30.20,NE,49,0.0,-999.0,72,-99.99,,,0.00,weatherlink.com 1.10,2013-09-15 22:13:00,
2013-09-15 18:28:00,70.2,61.0,30.20,NE,49,0.0,-999.0,72,-99.99,,,0.00,weatherlink.com 1.10,2013-09-15 22:28:00,
2013-09-15 18:43:00,69.4,60.0,30.20,NE,49,0.0,-999.0,73,-99.99,,,0.00,weatherlink.com 1.10,2013-09-15 22:43:00,
2013-09-15 18:58:00,68.9,60.0,30.20,NE,49,0.0,-999.0,74,-99.99,,,0.00,weatherlink.com 1.10,2013-09-15 22:58:00,
2013-09-15 19:13:00,68.6,60.0,30.20,NE,49,0.0,-999.0,75,-99.99,,,0.00,weatherlink.com 1.10,2013-09-15 23:13:00,
2013-09-15 19:28:00,68.6,60.0,30.20,NE,49,0.0,-999.0,75,-99.99,,,0.00,weatherlink.com 1.10,2013-09-15 23:28:00,
2013-09-15 19:43:00,68.3,60.0,30.21,NE,49,0.0,-999.0,75,-99.99,,,0.00,weatherlink.com 1.10,2013-09-15 23:43:00,
2013-09-15 19:58:00,67.7,60.0,30.21,NE,49,0.0,-999.0,76,-99.99,,,0.00,weatherlink.com 1.10,2013-09-15 23:58:00,
2013-09-15 20:13:00,67.1,59.0,30.21,NE,49,0.0,-999.0,76,-99.99,,,0.00,weatherlink.com 1.10,2013-09-16 00:13:00,
2013-09-15 20:29:00,66.5,59.0,30.21,NE,49,0.0,-999.0,77,-99.99,,,0.00,weatherlink.com 1.10,2013-09-16 00:29:00,
2013-09-15 20:44:00,66.0,59.0,30.21,NE,49,0.0,-999.0,77,-99.99,,,0.00,weatherlink.com 1.10,2013-09-16 00:44:00,
2013-09-15 20:59:00,65.5,58.0,30.21,NE,49,0.0,-999.0,78,-99.99,,,0.00,weatherlink.com 1.10,2013-09-16 00:59:00,
2013-09-15 21:14:00,64.9,58.0,30.22,NE,49,0.0,-999.0,79,-99.99,,,0.00,weatherlink.com 1.10,2013-09-16 01:14:00,
2013-09-15 21:29:00,64.4,58.0,30.23,NE,49,0.0,-999.0,79,-99.99,,,0.00,weatherlink.com 1.10,2013-09-16 01:29:00,
2013-09-15 21:44:00,64.0,58.0,30.23,NE,49,0.0,-999.0,80,-99.99,,,0.00,weatherlink.com 1.10,2013-09-16 01:44:00,
2013-09-15 21:59:00,63.6,57.0,30.23,NE,49,0.0,-999.0,80,-99.99,,,0.00,weatherlink.com 1.10,2013-09-16 01:59:00,
2013-09-15 22:14:00,63.2,57.0,30.23,NE,49,0.0,-999.0,81,-99.99,,,0.00,weatherlink.com 1.10,2013-09-16 02:14:00,
2013-09-15 22:29:00,63.0,57.0,30.23,NE,49,0.0,-999.0,81,-99.99,,,0.00,weatherlink.com 1.10,2013-09-16 02:29:00,
2013-09-15 22:44:00,62.8,57.0,30.23,NE,49,0.0,-999.0,81,-99.99,,,0.00,weatherlink.com 1.10,2013-09-16 02:44:00,
2013-09-15 22:59:00,62.6,57.0,30.23,NE,49,0.0,-999.0,82,-99.99,,,0.00,weatherlink.com 1.10,2013-09-16 02:59:00,
2013-09-15 23:14:00,62.3,57.0,30.23,NE,49,0.0,-999.0,82,-99.99,,,0.00,weatherlink.com 1.10,2013-09-16 03:14:00,
2013-09-15 23:29:00,62.0,56.0,30.22,NE,49,0.0,-999.0,82,-99.99,,,0.00,weatherlink.com 1.10,2013-09-16 03:29:00,
2013-09-15 23:45:00,61.7,56.0,30.23,NE,49,0.0,-999.0,82,-99.99,,,0.00,weatherlink.com 1.10,2013-09-16 03:45:00,